Terminal Aerodrome Forecast
Issued by NWS

Home | Current Version | Previous Version | Text Only | Print | Product List | Glossary On
Versions: 1 2 3 4 5 6 7 8 9 10 11 12 13 14 15 16 17 18 19
000
FTUS42 KMHX 070520
TAFPGV
TAF
KPGV 070520Z 0706/0806 21006KT P6SM SCT250
     FM070900 21002KT 4SM BR SCT008
     FM071300 22005KT P6SM SCT250
     FM071800 21007KT P6SM VCTS SCT050CB
     FM080000 19007KT P6SM BKN250
      AMD LTD TO CLD VIS AND WIND=

USA.gov is the U.S. government's official web portal to all federal, state and local government web resources and services.